createdAt,value
2022-12-31T00:02:05.618Z,42.15
2022-12-31T00:07:27.508Z,41.78
2022-12-31T00:12:49.269Z,41.73
2022-12-31T00:18:11.699Z,42.06
2022-12-31T00:23:33.610Z,42.20
2022-12-31T00:28:57.638Z,41.77
2022-12-31T00:34:19.356Z,41.73
2022-12-31T00:39:41.101Z,42.03
2022-12-31T00:45:02.847Z,41.78
2022-12-31T00:50:24.569Z,42.25
2022-12-31T00:55:46.541Z,42.09
2022-12-31T01:01:13.720Z,42.25
2022-12-31T01:06:36.055Z,41.89
2022-12-31T01:11:57.883Z,42.26
2022-12-31T01:17:19.627Z,42.27
2022-12-31T01:22:41.379Z,42.38
2022-12-31T01:28:04.359Z,42.13
2022-12-31T01:33:26.081Z,42.06
2022-12-31T01:38:47.830Z,42.11
2022-12-31T01:44:12.390Z,42.05
2022-12-31T01:49:43.082Z,42.07
2022-12-31T01:55:29.237Z,42.03
2022-12-31T02:00:53.518Z,42.55
2022-12-31T02:06:21.201Z,42.34
2022-12-31T02:11:43.121Z,42.09
2022-12-31T02:17:38.963Z,42.19
2022-12-31T02:23:34.431Z,42.05
2022-12-31T02:29:32.837Z,42.42
2022-12-31T02:35:03.448Z,42.10
2022-12-31T02:40:25.813Z,42.42
2022-12-31T02:46:13.806Z,42.58
2022-12-31T02:51:50.885Z,42.37
2022-12-31T02:57:15.575Z,42.59
2022-12-31T03:02:40.876Z,42.50
2022-12-31T03:08:02.645Z,42.19
2022-12-31T03:13:24.993Z,42.25
2022-12-31T03:19:05.371Z,42.32
2022-12-31T03:24:45.751Z,42.46
2022-12-31T03:30:08.249Z,42.51
2022-12-31T03:35:32.930Z,42.44
2022-12-31T03:40:54.661Z,42.64
2022-12-31T03:46:16.417Z,42.32
2022-12-31T03:51:38.243Z,42.29
2022-12-31T03:57:00.487Z,42.43
2022-12-31T04:02:28.590Z,42.67
2022-12-31T04:07:52.356Z,42.46
2022-12-31T04:13:16.929Z,42.72
2022-12-31T04:18:38.989Z,42.62
2022-12-31T04:24:01.981Z,42.50
2022-12-31T04:29:23.938Z,42.92
2022-12-31T04:34:45.647Z,43.05
2022-12-31T04:40:08.162Z,43.15
2022-12-31T04:45:29.902Z,42.85
2022-12-31T04:50:51.751Z,43.20
2022-12-31T04:56:13.898Z,42.90
2022-12-31T05:01:36.877Z,42.91
2022-12-31T05:06:59.146Z,43.33
2022-12-31T05:12:20.955Z,43.54
2022-12-31T05:17:42.711Z,43.21
2022-12-31T05:23:04.657Z,43.24
2022-12-31T05:28:26.748Z,43.27
2022-12-31T05:33:48.641Z,43.39
2022-12-31T05:39:10.412Z,43.65
2022-12-31T05:44:32.301Z,43.72
2022-12-31T05:49:54.075Z,43.76
2022-12-31T05:55:15.923Z,43.69
2022-12-31T06:00:37.629Z,43.78
2022-12-31T06:06:01.365Z,43.81
2022-12-31T06:11:23.601Z,43.49
2022-12-31T06:16:45.349Z,43.83
2022-12-31T06:22:07.183Z,43.76
2022-12-31T06:27:29.110Z,43.82
2022-12-31T06:32:51.003Z,43.67
2022-12-31T06:38:12.736Z,43.75
2022-12-31T06:43:35.521Z,44.37
2022-12-31T06:48:57.317Z,44.23
2022-12-31T06:54:19.067Z,43.59
2022-12-31T06:59:41.152Z,43.58
2022-12-31T07:05:08.202Z,42.61
2022-12-31T07:10:43.079Z,42.46
2022-12-31T07:16:30.924Z,41.92
2022-12-31T07:21:54.803Z,41.95
2022-12-31T07:27:42.089Z,41.82
2022-12-31T07:33:44.636Z,42.35
2022-12-31T07:39:11.894Z,42.33
2022-12-31T07:44:57.719Z,42.64
2022-12-31T07:50:19.971Z,43.12
2022-12-31T07:55:41.707Z,43.15
2022-12-31T08:01:04.032Z,43.86
2022-12-31T08:06:44.826Z,44.10
2022-12-31T08:12:08.704Z,44.10
2022-12-31T08:17:30.570Z,44.60
2022-12-31T08:23:33.573Z,44.58
2022-12-31T08:29:13.033Z,44.60
2022-12-31T08:34:43.894Z,44.54
2022-12-31T08:40:59.801Z,44.28
2022-12-31T08:46:29.458Z,44.50
2022-12-31T08:51:51.477Z,44.18
2022-12-31T08:57:44.008Z,43.81
2022-12-31T09:03:20.088Z,43.66
2022-12-31T09:09:00.225Z,43.10
2022-12-31T09:14:41.107Z,42.98
2022-12-31T09:20:03.299Z,42.73
2022-12-31T09:25:26.300Z,42.30
2022-12-31T09:31:02.604Z,42.48
2022-12-31T09:36:36.610Z,42.29
2022-12-31T09:42:16.780Z,41.87
2022-12-31T09:47:59.896Z,41.78
2022-12-31T09:53:36.423Z,41.94
2022-12-31T09:59:37.451Z,42.20
2022-12-31T10:06:00.985Z,42.13
2022-12-31T10:11:47.365Z,42.59
2022-12-31T10:17:54.226Z,42.83
2022-12-31T10:23:50.449Z,43.07
2022-12-31T10:29:36.808Z,42.97
2022-12-31T10:35:31.339Z,43.41
2022-12-31T10:40:56.048Z,43.17
2022-12-31T10:46:39.569Z,43.49
2022-12-31T10:52:48.927Z,44.03
2022-12-31T10:58:38.046Z,44.07
2022-12-31T11:04:14.968Z,44.14
2022-12-31T11:09:51.570Z,43.96
2022-12-31T11:15:39.458Z,43.98
2022-12-31T11:21:28.310Z,44.30
2022-12-31T11:27:07.107Z,44.17
2022-12-31T11:32:56.529Z,44.24
2022-12-31T11:38:29.191Z,44.17
2022-12-31T11:44:01.220Z,44.21
2022-12-31T11:49:50.618Z,44.08
2022-12-31T11:55:26.875Z,44.24
2022-12-31T12:01:14.111Z,44.35
2022-12-31T12:06:35.854Z,44.09
2022-12-31T12:12:03.126Z,44.13
2022-12-31T12:17:32.652Z,44.62
2022-12-31T12:22:56.503Z,44.22
2022-12-31T12:28:18.512Z,44.25
2022-12-31T12:33:46.477Z,44.29
2022-12-31T12:39:08.389Z,44.62
2022-12-31T12:44:30.843Z,44.53
2022-12-31T12:49:54.502Z,44.29
2022-12-31T12:55:23.177Z,44.73
2022-12-31T13:00:47.639Z,44.43
2022-12-31T13:06:50.953Z,44.27
2022-12-31T13:12:27.889Z,44.29
2022-12-31T13:18:02.813Z,44.28
2022-12-31T13:23:39.981Z,44.53
2022-12-31T13:29:03.864Z,44.86
2022-12-31T13:34:33.846Z,44.18
2022-12-31T13:40:03.098Z,44.38
2022-12-31T13:45:34.885Z,44.69
2022-12-31T13:51:23.232Z,44.37
2022-12-31T13:56:47.325Z,44.46
2022-12-31T14:02:39.132Z,44.54
2022-12-31T14:08:03.073Z,44.56
2022-12-31T14:13:43.323Z,44.33
2022-12-31T14:19:18.829Z,44.12
2022-12-31T14:24:46.608Z,44.16
2022-12-31T14:30:19.778Z,43.98
2022-12-31T14:35:52.732Z,43.84
2022-12-31T14:41:37.022Z,43.90
2022-12-31T14:47:07.663Z,43.53
2022-12-31T14:52:49.266Z,42.95
2022-12-31T14:58:28.233Z,43.01
2022-12-31T15:03:50.797Z,42.55
2022-12-31T15:09:20.786Z,42.36
2022-12-31T15:15:08.725Z,42.50
2022-12-31T15:20:59.485Z,42.14
2022-12-31T15:26:24.690Z,42.21
2022-12-31T15:31:48.062Z,41.99
2022-12-31T15:38:00.725Z,41.74
2022-12-31T15:43:25.136Z,41.91
2022-12-31T15:48:55.439Z,41.77
2022-12-31T15:54:50.665Z,41.82
2022-12-31T16:00:20.967Z,41.45
2022-12-31T16:05:42.666Z,41.39
2022-12-31T16:11:06.056Z,41.46
2022-12-31T16:16:32.637Z,41.64
2022-12-31T16:22:00.835Z,41.98
2022-12-31T16:27:24.571Z,42.31
2022-12-31T16:32:48.717Z,42.18
2022-12-31T16:38:18.082Z,42.17
2022-12-31T16:43:41.854Z,42.52
2022-12-31T16:49:15.873Z,42.95
2022-12-31T16:54:39.836Z,42.63
2022-12-31T17:00:06.466Z,43.21
2022-12-31T17:05:28.871Z,43.30
2022-12-31T17:10:51.064Z,43.20
2022-12-31T17:16:18.074Z,43.60
2022-12-31T17:21:47.597Z,44.17
2022-12-31T17:27:10.021Z,44.31
2022-12-31T17:32:37.725Z,44.84
2022-12-31T17:38:17.975Z,44.36
2022-12-31T17:43:40.540Z,44.10
2022-12-31T17:49:03.176Z,43.51
2022-12-31T17:54:24.904Z,42.91
2022-12-31T17:59:46.648Z,42.44
2022-12-31T18:05:20.735Z,41.72
2022-12-31T18:10:44.539Z,41.72
2022-12-31T18:16:06.723Z,41.92
2022-12-31T18:21:32.805Z,41.88
2022-12-31T18:26:55.986Z,42.33
2022-12-31T18:32:24.509Z,42.67
2022-12-31T18:37:46.650Z,42.73
2022-12-31T18:43:17.489Z,43.13
2022-12-31T18:48:41.558Z,43.34
2022-12-31T18:54:04.911Z,43.68
2022-12-31T18:59:26.721Z,43.58
2022-12-31T19:04:48.712Z,43.27
2022-12-31T19:10:14.279Z,42.69
2022-12-31T19:15:43.477Z,42.22
2022-12-31T19:21:05.468Z,42.05
2022-12-31T19:26:27.284Z,41.28
2022-12-31T19:31:49.777Z,40.74
2022-12-31T19:37:15.535Z,40.52
2022-12-31T19:42:37.348Z,40.17
2022-12-31T19:47:59.067Z,40.09
2022-12-31T19:53:24.192Z,39.26
2022-12-31T19:58:46.432Z,39.42
2022-12-31T20:04:08.195Z,38.84
2022-12-31T20:09:29.917Z,38.88
2022-12-31T20:14:51.684Z,38.77
2022-12-31T20:20:13.537Z,38.32
2022-12-31T20:25:35.263Z,37.71
2022-12-31T20:30:57.218Z,37.96
2022-12-31T20:36:19.021Z,37.53
2022-12-31T20:41:40.739Z,37.36
2022-12-31T20:47:02.590Z,37.39
2022-12-31T20:52:24.347Z,37.15
2022-12-31T20:57:46.083Z,36.91
2022-12-31T21:03:23.799Z,36.65
2022-12-31T21:08:49.674Z,36.66
2022-12-31T21:14:11.482Z,36.35
2022-12-31T21:19:33.212Z,36.40
2022-12-31T21:24:55.001Z,36.51
2022-12-31T21:30:18.799Z,36.39
2022-12-31T21:35:45.672Z,36.74
2022-12-31T21:41:33.284Z,36.71
2022-12-31T21:47:41.054Z,36.50
2022-12-31T21:53:02.648Z,35.87
2022-12-31T21:58:26.498Z,35.37
2022-12-31T22:03:49.277Z,35.70
2022-12-31T22:09:11.059Z,35.58
2022-12-31T22:14:32.774Z,35.56
2022-12-31T22:20:17.566Z,35.10
2022-12-31T22:25:37.979Z,35.18
2022-12-31T22:31:01.040Z,35.32
2022-12-31T22:36:24.269Z,35.90
2022-12-31T22:41:46.670Z,36.30
2022-12-31T22:47:08.801Z,36.56
2022-12-31T22:52:31.383Z,36.94
2022-12-31T22:57:53.105Z,36.77
2022-12-31T23:03:15.351Z,36.92
2022-12-31T23:08:37.149Z,36.71
2022-12-31T23:14:17.814Z,36.81
2022-12-31T23:19:58.412Z,36.74
2022-12-31T23:25:20.465Z,36.97
2022-12-31T23:30:43.374Z,36.73
2022-12-31T23:36:07.069Z,36.81
2022-12-31T23:41:28.839Z,36.92
2022-12-31T23:46:50.914Z,36.97
2022-12-31T23:52:12.667Z,37.25
2022-12-31T23:57:34.406Z,37.05
